Terminal Aerodrome Forecast
Issued by NWS Green Bay, WI

Home | Current Version | Previous Version | Graphics & Text | Print | Product List | Glossary On
Versions: 1 2 3 4 5 6 7 8 9 10 11 12 13 14 15 16 17 18 19 20 21 22 23 24 25 26 27
000
FTUS43 KGRB 242148 AAC
TAFGRB
TAF AMD
KGRB 242148Z 2422/2518 27010KT P6SM VCSH SCT050 BKN090
     FM250200 24004KT P6SM SCT045 BKN080
     FM250700 03006KT P6SM SCT007
      TEMPO 2508/2512 4SM BR BKN007
     FM251400 09009G15KT P6SM SCT025 BKN250=

USA.gov is the U.S. government's official web portal to all federal, state and local government web resources and services.